Date,TemperatureHighF,TemperatureAvgF,TemperatureLowF,DewpointHighF,DewpointAvgF,DewpointLowF,HumidityHigh,HumidityAvg,HumidityLow,PressureMaxIn,PressureMinIn,WindSpeedMaxMPH,WindSpeedAvgMPH,GustSpeedMaxMPH,PrecipitationSumIn
2013-6-1,81.0,61.1,44.6,44.2,36.1,30.5,67,43,21,30.25,30.08,14,1,14,0.00
2013-6-2,76.6,59.8,47.8,44.2,38.0,31.5,81,49,21,30.08,30.02,15,1,15,0.00
2013-6-3,81.7,59.8,42.3,37.0,33.2,25.1,76,42,20,30.11,30.05,10,0,10,0.00
2013-6-4,84.9,63.9,51.1,38.7,29.7,20.6,38,28,19,30.14,30.08,12,0,12,0.00
2013-6-5,91.9,71.0,52.9,44.7,38.2,32.8,52,32,17,30.14,30.05,11,1,11,0.00
2013-6-6,91.9,71.6,56.5,49.0,43.9,40.1,62,40,18,30.11,30.05,11,1,11,0.00
2013-6-7,88.3,69.9,55.0,49.9,44.2,37.9,79,44,20,30.16,30.11,13,1,13,0.00
2013-6-8,91.9,70.4,51.3,47.2,40.4,30.6,83,40,15,30.16,30.11,13,1,13,0.00
2013-6-9,88.2,68.5,55.2,43.9,38.3,28.4,63,36,18,30.11,29.96,13,1,13,0.00
2013-6-10,83.8,62.5,46.2,37.2,32.6,28.0,60,35,19,29.99,29.87,12,1,12,0.00
2013-6-11,63.0,51.8,44.1,35.2,31.4,29.4,60,46,30,30.11,29.93,12,0,12,0.00
2013-6-12,68.0,52.4,39.7,34.4,31.5,28.1,72,47,27,30.11,30.08,15,1,15,0.00
2013-6-13,59.4,47.1,37.0,44.4,33.6,28.7,86,61,38,30.22,30.11,13,1,13,0.13
2013-6-14,75.2,60.0,37.4,36.5,31.8,25.5,86,40,21,30.22,30.05,9,1,9,0.00
2013-6-15,82.0,63.0,48.7,43.7,36.0,28.9,57,39,19,30.05,29.96,20,1,20,0.00
2013-6-16,80.2,63.7,51.6,61.0,41.9,35.4,74,47,22,30.14,30.05,18,1,18,0.13
2013-6-17,76.8,60.5,47.5,46.4,41.3,35.5,86,54,24,30.14,29.99,17,2,17,0.00
2013-6-18,64.2,53.1,46.6,48.1,41.0,31.8,89,66,36,30.02,29.93,11,1,11,0.13
2013-6-19,58.5,48.5,40.1,46.0,37.2,30.8,95,67,42,30.08,29.93,8,0,8,0.33
2013-6-20,65.1,49.3,36.5,35.6,33.2,29.0,86,58,33,30.11,30.02,13,1,13,0.00
2013-6-21,63.0,50.9,41.2,40.2,36.9,32.9,88,61,36,30.16,30.11,11,1,11,0.00
2013-6-22,80.6,59.6,41.0,41.9,38.1,35.5,87,49,23,30.14,29.99,10,1,10,0.00
2013-6-23,60.4,56.7,53.2,56.0,49.3,38.4,98,78,48,29.99,29.78,10,1,10,0.33
2013-6-24,56.8,51.9,48.0,52.5,48.0,42.7,98,87,66,29.84,29.75,11,1,11,0.13
2013-6-25,62.6,55.1,49.8,50.2,45.0,39.0,96,70,47,29.93,29.78,17,5,17,0.07
2013-6-27,84.7,75.4,61.3,52.9,48.8,45.2,69,41,29,30.25,30.19,15,2,15,0.11
2013-6-28,94.1,73.7,58.5,57.3,52.1,45.6,83,53,20,30.28,30.16,10,1,10,0.11
2013-6-29,90.3,72.6,64.4,56.0,53.1,49.4,70,53,28,30.19,30.14,10,1,10,0.11